Time;durP1;ratioP1;P1;durP2;ratioP2;P2;SDS_P1;SDS_P2;PMS_P1;PMS_P2;Temp;Humidity;BMP_temperature;BMP_pressure;BME280_temperature;BME280_humidity;BME280_pressure;Samples;Min_cycle;Max_cycle;Signal;HPM_P1;HPM_P2
2022/09/22 00:01:39;;;;;;;11.38;8.13;;;;;;;13.11;100.00;99601.16;5075789;28;20040;-83
2022/09/22 00:04:08;;;;;;;11.50;8.13;;;;;;;13.03;100.00;99584.69;5085030;28;20023;-83
2022/09/22 00:06:50;;;;;;;12.25;8.40;;;;;;;13.07;100.00;99581.47;5075900;28;20421;-84
2022/09/22 00:09:18;;;;;;;10.80;7.70;;;;;;;13.21;100.00;99589.41;5078919;28;20398;-82
2022/09/22 00:11:50;;;;;;;12.18;8.50;;;;;;;13.27;100.00;99589.44;5081092;28;20154;-83
2022/09/22 00:14:23;;;;;;;9.68;7.05;;;;;;;13.22;100.00;99591.84;5083265;28;20028;-82
2022/09/22 00:16:54;;;;;;;12.43;7.93;;;;;;;13.05;100.00;99574.75;5085666;28;20042;-83
2022/09/22 00:19:28;;;;;;;11.52;8.13;;;;;;;12.92;100.00;99581.59;5078201;28;20333;-82
2022/09/22 00:21:55;;;;;;;10.68;8.38;;;;;;;13.03;100.00;99582.06;5079605;28;20085;-83
2022/09/22 00:24:23;;;;;;;11.32;8.70;;;;;;;12.97;100.00;99566.03;5085186;28;20078;-82
2022/09/22 00:26:50;;;;;;;12.25;9.02;;;;;;;12.99;100.00;99560.53;5086281;28;20028;-82
2022/09/22 00:29:16;;;;;;;11.38;8.40;;;;;;;13.14;100.00;99578.84;5078084;28;20024;-84
2022/09/22 00:31:45;;;;;;;13.55;8.48;;;;;;;13.09;100.00;99570.72;5078096;28;20036;-82
2022/09/22 00:34:18;;;;;;;12.43;8.65;;;;;;;13.22;100.00;99578.66;5082662;28;20028;-83
2022/09/22 00:36:44;;;;;;;12.27;8.35;;;;;;;13.00;100.00;99552.47;5074427;28;20111;-82
2022/09/22 00:39:10;;;;;;;14.48;8.25;;;;;;;13.12;100.00;99570.31;5058613;28;20024;-83
2022/09/22 00:41:43;;;;;;;11.80;7.90;;;;;;;13.31;100.00;99565.28;5081083;28;20036;-82
2022/09/22 00:44:34;;;;;;;10.95;8.10;;;;;;;13.39;100.00;99570.41;5085416;28;20477;-83
2022/09/22 00:47:30;;;;;;;12.68;8.43;;;;;;;13.45;100.00;99568.81;5079814;28;20051;-83
2022/09/22 00:50:16;;;;;;;10.73;8.15;;;;;;;13.43;100.00;99551.34;5082564;28;20032;-83
2022/09/22 00:53:02;;;;;;;12.52;8.18;;;;;;;13.54;100.00;99552.59;5074623;28;20104;-83
2022/09/22 00:55:45;;;;;;;10.23;7.90;;;;;;;13.46;100.00;99544.88;5078883;28;20046;-83
2022/09/22 00:58:17;;;;;;;11.20;8.13;;;;;;;13.41;100.00;99552.56;5083515;28;20056;-83
2022/09/22 01:00:46;;;;;;;11.82;8.55;;;;;;;13.21;100.00;99553.31;5079480;28;20029;-84
2022/09/22 01:03:20;;;;;;;9.10;7.25;;;;;;;13.43;100.00;99547.91;5081871;28;20058;-83
2022/09/22 01:05:54;;;;;;;9.88;7.20;;;;;;;13.32;100.00;99537.91;5076772;28;20150;-82
2022/09/22 01:08:23;;;;;;;10.77;7.72;;;;;;;13.32;100.00;99530.00;5079243;28;20099;-83
2022/09/22 01:10:52;;;;;;;10.63;8.13;;;;;;;13.44;100.00;99541.63;5083227;28;20044;-84
2022/09/22 01:13:34;;;;;;;10.43;7.68;;;;;;;13.26;100.00;99529.81;5072468;28;20063;-83
2022/09/22 01:16:33;;;;;;;12.43;8.30;;;;;;;13.26;100.00;99519.25;5079053;28;20021;-83
2022/09/22 01:19:08;;;;;;;13.02;8.88;;;;;;;13.24;100.00;99537.09;5076874;28;20031;-84
2022/09/22 01:21:52;;;;;;;12.70;8.43;;;;;;;13.23;100.00;99535.47;5084141;28;20029;-83
2022/09/22 01:24:29;;;;;;;15.73;9.05;;;;;;;13.24;100.00;99533.63;5075374;28;20028;-84
2022/09/22 01:27:04;;;;;;;11.98;7.97;;;;;;;13.27;100.00;99528.00;5072545;28;20035;-84
2022/09/22 01:30:04;;;;;;;10.75;7.93;;;;;;;13.33;100.00;99519.28;5082782;28;20496;-83
2022/09/22 01:32:42;;;;;;;11.82;7.80;;;;;;;13.16;100.00;99513.53;5084180;28;20489;-84
2022/09/22 01:35:17;;;;;;;11.70;8.05;;;;;;;13.26;100.00;99515.78;5080312;28;20035;-83
2022/09/22 01:38:06;;;;;;;13.38;8.75;;;;;;;13.13;100.00;99513.94;5083134;28;20498;-83
2022/09/22 01:40:31;;;;;;;16.52;8.10;;;;;;;13.23;100.00;99511.75;5084005;28;20358;-85
2022/09/22 01:43:16;;;;;;;11.50;8.65;;;;;;;13.11;100.00;99513.34;5081193;28;20024;-83
2022/09/22 01:45:45;;;;;;;11.73;8.35;;;;;;;13.16;100.00;99492.47;5081386;28;20397;-84
2022/09/22 01:48:21;;;;;;;10.15;8.32;;;;;;;13.11;100.00;99505.44;5084744;28;20085;-83
2022/09/22 01:51:04;;;;;;;11.35;7.78;;;;;;;13.00;100.00;99491.03;5083299;28;20038;-83
2022/09/22 01:53:53;;;;;;;11.98;7.60;;;;;;;13.14;100.00;99505.03;5082841;28;20070;-84
2022/09/22 01:56:20;;;;;;;14.65;8.45;;;;;;;13.06;100.00;99481.50;5091705;28;20032;-84
2022/09/22 01:58:53;;;;;;;14.25;8.95;;;;;;;13.11;100.00;99481.72;5083765;28;20034;-83
2022/09/22 02:01:24;;;;;;;17.55;8.57;;;;;;;13.05;100.00;99496.50;5079930;28;20038;-83
2022/09/22 02:03:59;;;;;;;13.38;8.13;;;;;;;13.17;100.00;99488.84;5084830;28;20359;-82
2022/09/22 02:06:38;;;;;;;12.68;8.80;;;;;;;13.17;100.00;99491.47;5084192;28;20032;-82
2022/09/22 02:09:11;;;;;;;14.43;8.90;;;;;;;13.19;100.00;99493.91;5082497;28;20032;-82
2022/09/22 02:11:37;;;;;;;15.83;7.77;;;;;;;13.11;100.00;99485.19;5088361;28;20080;-83
2022/09/22 02:14:03;;;;;;;14.25;8.10;;;;;;;13.11;100.00;99497.53;5082686;28;20068;-83
2022/09/22 02:16:30;;;;;;;12.80;8.25;;;;;;;13.14;100.00;99489.22;5085605;28;20028;-84
2022/09/22 02:19:07;;;;;;;12.48;8.20;;;;;;;13.07;100.00;99483.13;5085983;28;20072;-83
2022/09/22 02:21:33;;;;;;;13.10;8.48;;;;;;;12.78;100.00;99450.84;5081639;28;20032;-83
2022/09/22 02:24:00;;;;;;;10.90;8.15;;;;;;;13.00;100.00;99469.94;5082686;28;20035;-82
2022/09/22 02:26:32;;;;;;;12.57;8.50;;;;;;;12.90;100.00;99454.50;5079980;28;20029;-82
2022/09/22 02:29:06;;;;;;;15.13;8.83;;;;;;;12.84;100.00;99464.03;5084320;28;20032;-81
2022/09/22 02:31:36;;;;;;;12.10;8.52;;;;;;;12.86;100.00;99440.13;5081579;28;20119;-82
2022/09/22 02:34:04;;;;;;;13.60;8.82;;;;;;;12.80;100.00;99448.84;5079858;28;20027;-81
2022/09/22 02:36:39;;;;;;;12.55;8.13;;;;;;;12.89;100.00;99463.44;5084234;28;20378;-82
2022/09/22 02:39:16;;;;;;;16.48;8.65;;;;;;;12.87;100.00;99454.91;5086410;28;20040;-81
2022/09/22 02:41:54;;;;;;;13.10;8.30;;;;;;;13.04;100.00;99457.19;5079893;28;20505;-82
2022/09/22 02:44:32;;;;;;;12.13;7.60;;;;;;;12.89;100.00;99429.19;5083579;28;20024;-82
2022/09/22 02:47:13;;;;;;;10.93;8.20;;;;;;;12.96;100.00;99440.53;5078533;28;20406;-83
2022/09/22 02:49:41;;;;;;;10.40;7.95;;;;;;;12.90;100.00;99430.81;5074842;28;20112;-82
2022/09/22 02:52:10;;;;;;;10.68;7.88;;;;;;;12.89;100.00;99437.09;5074959;28;20386;-82
2022/09/22 02:54:35;;;;;;;12.60;8.45;;;;;;;12.83;100.00;99440.53;5080973;28;20036;-82
2022/09/22 02:57:01;;;;;;;14.10;8.57;;;;;;;12.82;100.00;99446.81;5086293;28;20035;-82
2022/09/22 02:59:26;;;;;;;13.38;8.98;;;;;;;12.62;100.00;99433.56;5083115;28;20397;-82
2022/09/22 03:01:52;;;;;;;14.93;8.70;;;;;;;12.76;100.00;99435.25;5085812;28;20063;-82
2022/09/22 03:04:17;;;;;;;14.18;9.48;;;;;;;12.65;100.00;99444.53;5083593;28;20039;-82
2022/09/22 03:06:43;;;;;;;14.13;9.38;;;;;;;12.67;100.00;99439.88;5076807;28;20043;-83
2022/09/22 03:09:08;;;;;;;12.98;8.80;;;;;;;12.69;100.00;99440.47;5084878;28;20464;-83
2022/09/22 03:11:34;;;;;;;11.50;8.50;;;;;;;12.75;100.00;99427.53;5085674;28;20029;-82
2022/09/22 03:14:00;;;;;;;14.25;9.88;;;;;;;12.67;100.00;99434.59;5085060;28;20028;-82
2022/09/22 03:16:25;;;;;;;12.90;9.15;;;;;;;12.70;100.00;99442.09;5081799;28;20536;-83
2022/09/22 03:18:52;;;;;;;12.40;8.88;;;;;;;12.68;100.00;99433.59;5084441;28;20032;-83
2022/09/22 03:21:18;;;;;;;11.98;8.63;;;;;;;12.78;100.00;99435.06;5078152;28;20398;-82
2022/09/22 03:23:52;;;;;;;17.98;9.48;;;;;;;12.66;100.00;99427.72;5084357;28;20032;-83
2022/09/22 03:26:17;;;;;;;13.20;8.88;;;;;;;12.68;100.00;99417.00;5078990;28;20066;-82
2022/09/22 03:28:49;;;;;;;14.88;9.65;;;;;;;12.74;100.00;99431.16;5084511;28;20036;-83
2022/09/22 03:31:22;;;;;;;12.15;8.90;;;;;;;12.73;100.00;99426.91;5081716;28;20036;-82
2022/09/22 03:33:48;;;;;;;16.35;10.80;;;;;;;12.76;100.00;99424.69;5081629;28;20031;-82
2022/09/22 03:36:13;;;;;;;13.88;9.55;;;;;;;12.71;100.00;99427.13;5080953;28;20024;-82
2022/09/22 03:38:39;;;;;;;12.10;9.07;;;;;;;12.68;100.00;99425.69;5083973;28;20111;-83
2022/09/22 03:41:05;;;;;;;17.55;9.57;;;;;;;12.65;100.00;99436.63;5081141;28;20107;-82
2022/09/22 03:43:31;;;;;;;15.45;8.55;;;;;;;12.68;100.00;99430.97;5084245;28;20546;-83
2022/09/22 03:45:58;;;;;;;14.13;9.63;;;;;;;12.56;100.00;99416.72;5083396;28;20466;-82
2022/09/22 03:48:25;;;;;;;12.75;9.27;;;;;;;12.63;100.00;99409.69;5083623;28;20071;-83
2022/09/22 03:50:51;;;;;;;13.52;8.68;;;;;;;12.50;100.00;99394.66;5090973;28;20036;-82
2022/09/22 03:53:17;;;;;;;16.17;10.85;;;;;;;12.39;100.00;99396.03;5084021;28;20465;-83
2022/09/22 03:55:43;;;;;;;12.60;9.02;;;;;;;12.43;100.00;99397.28;5082114;28;20028;-82
2022/09/22 03:58:08;;;;;;;13.38;9.32;;;;;;;12.32;100.00;99386.50;5081466;28;20036;-82
2022/09/22 04:00:34;;;;;;;15.65;10.50;;;;;;;12.28;100.00;99383.44;5078721;28;20433;-83
2022/09/22 04:03:00;;;;;;;15.07;11.02;;;;;;;12.30;100.00;99384.06;5082392;28;20415;-82
2022/09/22 04:05:25;;;;;;;12.57;8.95;;;;;;;12.32;100.00;99387.28;5084947;28;20119;-82
2022/09/22 04:07:51;;;;;;;14.98;9.57;;;;;;;12.25;100.00;99365.41;5081116;28;20106;-82
2022/09/22 04:10:17;;;;;;;18.70;11.30;;;;;;;12.26;100.00;99372.31;5081763;28;20105;-81
2022/09/22 04:12:42;;;;;;;15.52;10.77;;;;;;;12.23;100.00;99372.69;5083510;28;20020;-82
2022/09/22 04:15:15;;;;;;;18.13;10.90;;;;;;;12.17;100.00;99353.25;5076764;28;20040;-82
2022/09/22 04:17:41;;;;;;;17.27;10.98;;;;;;;12.23;100.00;99355.06;5077953;28;20033;-82
2022/09/22 04:20:08;;;;;;;19.92;11.63;;;;;;;12.16;100.00;99345.53;5083672;28;20084;-82
2022/09/22 04:22:34;;;;;;;17.23;12.65;;;;;;;12.09;100.00;99330.53;5082165;28;20410;-82
2022/09/22 04:24:59;;;;;;;14.90;10.95;;;;;;;12.11;100.00;99336.41;5079230;28;20069;-82
2022/09/22 04:27:26;;;;;;;22.50;13.10;;;;;;;12.18;100.00;99336.44;5086547;28;20367;-82
2022/09/22 04:29:51;;;;;;;20.75;13.65;;;;;;;12.14;100.00;99328.13;5079676;28;20031;-82
2022/09/22 04:32:17;;;;;;;24.55;14.00;;;;;;;12.21;100.00;99349.19;5083454;28;20036;-82
2022/09/22 04:34:43;;;;;;;20.52;14.32;;;;;;;12.20;100.00;99352.84;5083055;28;20023;-81
2022/09/22 04:37:12;;;;;;;23.52;14.75;;;;;;;12.14;100.00;99340.47;5083386;28;20037;-83
2022/09/22 04:39:38;;;;;;;22.63;14.43;;;;;;;12.09;100.00;99341.06;5081783;28;20032;-82
2022/09/22 04:42:04;;;;;;;23.92;14.80;;;;;;;12.13;100.00;99347.56;5084074;28;20081;-83
2022/09/22 04:44:29;;;;;;;23.35;15.65;;;;;;;12.18;100.00;99348.78;5080145;28;20056;-83
2022/09/22 04:46:56;;;;;;;23.85;15.35;;;;;;;12.03;100.00;99341.88;5079034;28;20032;-82
2022/09/22 04:49:22;;;;;;;22.17;15.18;;;;;;;12.12;100.00;99345.94;5078869;28;20048;-83
2022/09/22 04:51:48;;;;;;;24.83;15.70;;;;;;;11.99;100.00;99324.81;5083676;28;20035;-82
2022/09/22 04:54:14;;;;;;;24.35;15.57;;;;;;;12.09;100.00;99346.31;5083813;28;20028;-83
2022/09/22 04:56:43;;;;;;;24.05;15.20;;;;;;;12.09;100.00;99343.69;5084611;28;20038;-82
2022/09/22 04:59:09;;;;;;;24.17;16.00;;;;;;;12.04;100.00;99338.22;5076418;28;20032;-84
2022/09/22 05:01:34;;;;;;;22.95;15.88;;;;;;;12.11;100.00;99357.47;5077818;28;20032;-83
2022/09/22 05:04:00;;;;;;;24.70;16.52;;;;;;;11.99;100.00;99356.41;5074507;28;20032;-83
2022/09/22 05:06:26;;;;;;;24.23;16.55;;;;;;;11.92;100.00;99356.34;5088592;28;20081;-83
2022/09/22 05:08:51;;;;;;;26.20;16.38;;;;;;;11.91;100.00;99353.91;5087574;28;20035;-82
2022/09/22 05:11:20;;;;;;;26.52;16.58;;;;;;;12.04;100.00;99361.06;5083234;28;20044;-82
2022/09/22 05:13:46;;;;;;;28.08;18.38;;;;;;;11.85;100.00;99366.84;5082857;28;20482;-81
2022/09/22 05:16:11;;;;;;;24.45;15.85;;;;;;;11.97;100.00;99361.00;5084303;28;20031;-81
2022/09/22 05:18:38;;;;;;;28.67;18.42;;;;;;;11.89;100.00;99353.28;5085086;28;20028;-82
2022/09/22 05:21:05;;;;;;;26.00;17.30;;;;;;;11.79;100.00;99343.97;5086263;28;20028;-83
2022/09/22 05:23:31;;;;;;;23.27;17.23;;;;;;;11.93;100.00;99357.16;5079141;28;20480;-82
2022/09/22 05:25:57;;;;;;;20.42;15.57;;;;;;;11.88;100.00;99351.66;5085999;28;20425;-82
2022/09/22 05:28:23;;;;;;;28.33;17.20;;;;;;;11.84;100.00;99349.44;5085745;28;20028;-82
2022/09/22 05:30:49;;;;;;;25.63;17.10;;;;;;;11.82;100.00;99356.72;5081769;28;20039;-82
2022/09/22 05:33:16;;;;;;;26.90;16.98;;;;;;;11.63;100.00;99333.75;5084075;28;20390;-81
2022/09/22 05:35:41;;;;;;;26.42;16.38;;;;;;;11.72;100.00;99345.72;5089308;28;20020;-81
2022/09/22 05:38:07;;;;;;;24.30;15.70;;;;;;;11.75;100.00;99345.31;5088553;28;20475;-81
2022/09/22 05:40:33;;;;;;;29.00;18.25;;;;;;;11.75;100.00;99340.06;5088782;28;20029;-82
2022/09/22 05:42:58;;;;;;;28.80;18.70;;;;;;;11.73;100.00;99339.47;5083475;28;20029;-82
2022/09/22 05:45:24;;;;;;;30.75;19.42;;;;;;;11.70;100.00;99317.00;5081461;28;20490;-83
2022/09/22 05:47:52;;;;;;;33.47;20.60;;;;;;;11.79;100.00;99325.53;5085541;28;20028;-82
2022/09/22 05:50:19;;;;;;;35.47;20.20;;;;;;;11.80;100.00;99321.91;5080348;28;20383;-81
2022/09/22 05:52:45;;;;;;;33.80;20.90;;;;;;;11.89;100.00;99335.72;5079735;28;20047;-82
2022/09/22 05:55:11;;;;;;;34.55;22.00;;;;;;;11.91;100.00;99325.81;5087544;28;20024;-83
2022/09/22 05:57:38;;;;;;;30.83;20.25;;;;;;;11.94;100.00;99317.50;5080564;28;20056;-82
2022/09/22 06:00:06;;;;;;;34.42;19.70;;;;;;;12.00;100.00;99331.69;5083535;28;20027;-81
2022/09/22 06:02:31;;;;;;;40.85;22.40;;;;;;;11.89;100.00;99324.38;5081811;28;20021;-82
2022/09/22 06:04:57;;;;;;;35.03;20.75;;;;;;;11.89;100.00;99319.94;5086889;28;20057;-82
2022/09/22 06:07:23;;;;;;;33.53;21.33;;;;;;;11.91;100.00;99336.31;5082402;28;20041;-83
2022/09/22 06:09:49;;;;;;;33.47;21.70;;;;;;;11.98;100.00;99326.63;5084422;28;20063;-83
2022/09/22 06:12:15;;;;;;;34.80;21.83;;;;;;;11.98;100.00;99323.16;5089078;28;20493;-82
2022/09/22 06:14:42;;;;;;;30.80;19.92;;;;;;;12.02;100.00;99326.25;5083421;28;20141;-83
2022/09/22 06:17:11;;;;;;;33.05;21.30;;;;;;;11.93;100.00;99309.81;5083286;28;20059;-83
2022/09/22 06:19:38;;;;;;;33.97;22.13;;;;;;;11.98;100.00;99308.22;5082338;28;20028;-84
2022/09/22 06:22:03;;;;;;;35.38;21.88;;;;;;;11.98;100.00;99291.59;5085661;28;20531;-83
2022/09/22 06:24:29;;;;;;;35.35;20.77;;;;;;;12.05;100.00;99289.84;5078781;28;20119;-84
2022/09/22 06:26:55;;;;;;;36.85;23.65;;;;;;;11.98;100.00;99281.91;5081038;28;20154;-84
2022/09/22 06:29:21;;;;;;;40.92;24.13;;;;;;;12.08;100.00;99296.53;5081936;28;20041;-84
2022/09/22 06:31:47;;;;;;;36.88;23.05;;;;;;;12.16;100.00;99288.47;5081740;28;20037;-84
2022/09/22 06:34:16;;;;;;;36.25;22.50;;;;;;;12.17;100.00;99273.47;5084904;28;20020;-83
2022/09/22 06:36:44;;;;;;;34.40;22.52;;;;;;;12.35;100.00;99302.66;5078781;28;20025;-85
2022/09/22 06:39:11;;;;;;;33.70;22.15;;;;;;;12.41;100.00;99301.06;5085619;28;20034;-83
2022/09/22 06:41:39;;;;;;;34.55;22.88;;;;;;;12.53;100.00;99306.53;5079117;28;20498;-84
2022/09/22 06:44:05;;;;;;;32.05;22.42;;;;;;;12.43;100.00;99299.88;5078603;28;20021;-83
2022/09/22 06:46:33;;;;;;;32.25;21.88;;;;;;;12.58;100.00;99298.88;5082101;28;20035;-82
2022/09/22 06:48:59;;;;;;;32.05;21.13;;;;;;;12.77;100.00;99307.78;5079094;28;20043;-81
2022/09/22 06:51:31;;;;;;;34.25;22.45;;;;;;;12.74;100.00;99288.94;5080503;28;20477;-83
2022/09/22 06:54:00;;;;;;;31.10;21.15;;;;;;;12.86;100.00;99295.22;5065668;28;20069;-81
2022/09/22 06:56:26;;;;;;;32.53;22.10;;;;;;;12.93;100.00;99289.97;5082689;28;20078;-82
2022/09/22 06:58:54;;;;;;;39.25;21.08;;;;;;;13.00;100.00;99312.66;5085888;28;20032;-81
2022/09/22 07:01:21;;;;;;;35.13;22.05;;;;;;;13.10;100.00;99316.69;5080113;28;20056;-82
2022/09/22 07:03:47;;;;;;;32.70;21.70;;;;;;;13.12;100.00;99320.75;5078061;28;20024;-84
2022/09/22 07:06:17;;;;;;;31.38;21.58;;;;;;;13.08;100.00;99310.81;5083699;28;20028;-83
2022/09/22 07:08:45;;;;;;;31.63;20.65;;;;;;;13.26;100.00;99316.28;5079995;28;20078;-84
2022/09/22 07:11:12;;;;;;;33.97;21.27;;;;;;;13.25;100.00;99301.47;5075382;28;20048;-83
2022/09/22 07:13:42;;;;;;;30.75;21.38;;;;;;;13.38;100.00;99313.81;5083966;28;20070;-82
2022/09/22 07:16:10;;;;;;;29.63;20.45;;;;;;;13.46;100.00;99314.63;5081559;28;20032;-82
2022/09/22 07:18:40;;;;;;;30.50;21.05;;;;;;;13.47;100.00;99309.16;5080933;28;20024;-83
2022/09/22 07:21:11;;;;;;;27.40;20.48;;;;;;;13.61;100.00;99309.94;5085489;28;20031;-82
2022/09/22 07:23:40;;;;;;;33.72;22.23;;;;;;;13.64;100.00;99317.44;5080228;28;20555;-82
2022/09/22 07:26:09;;;;;;;30.00;19.88;;;;;;;13.77;100.00;99313.13;5083031;28;20035;-82
2022/09/22 07:28:35;;;;;;;31.08;22.30;;;;;;;13.91;100.00;99305.97;5083064;28;20067;-83
2022/09/22 07:31:04;;;;;;;30.33;21.35;;;;;;;13.86;100.00;99306.63;5084157;28;20035;-83
2022/09/22 07:33:34;;;;;;;30.73;20.40;;;;;;;14.04;100.00;99307.72;5085511;28;20032;-81
2022/09/22 07:36:17;;;;;;;27.80;21.33;;;;;;;14.06;100.00;99301.25;5078823;28;20125;-83
2022/09/22 07:38:48;;;;;;;36.38;22.75;;;;;;;14.10;100.00;99301.63;5076502;28;20036;-83
2022/09/22 07:41:17;;;;;;;33.63;22.33;;;;;;;14.02;100.00;99286.84;5082081;28;20402;-84
2022/09/22 07:43:44;;;;;;;30.52;21.13;;;;;;;14.19;100.00;99294.28;5064941;28;20034;-84
2022/09/22 07:46:11;;;;;;;35.85;22.00;;;;;;;13.88;100.00;99285.28;5085449;28;20031;-83
2022/09/22 07:48:42;;;;;;;30.83;21.63;;;;;;;13.97;100.00;99281.41;5077216;28;20448;-83
2022/09/22 07:51:18;;;;;;;33.88;21.05;;;;;;;14.26;100.00;99282.66;5083581;28;20038;-83
2022/09/22 07:54:03;;;;;;;25.35;19.20;;;;;;;14.53;100.00;99305.41;5080192;28;20028;-83
2022/09/22 07:56:29;;;;;;;27.45;19.08;;;;;;;14.48;100.00;99292.88;5077990;28;20036;-83
2022/09/22 07:58:54;;;;;;;30.52;19.67;;;;;;;14.37;100.00;99275.06;5079084;28;20032;-83
2022/09/22 08:01:22;;;;;;;24.85;17.25;;;;;;;14.45;100.00;99288.03;5077784;28;20074;-83
2022/09/22 08:03:49;;;;;;;25.58;17.50;;;;;;;14.45;100.00;99281.94;5076093;28;20374;-84
2022/09/22 08:06:18;;;;;;;23.65;17.23;;;;;;;14.31;100.00;99278.56;5079370;28;20116;-83
2022/09/22 08:08:52;;;;;;;28.02;18.70;;;;;;;14.68;100.00;99284.00;5075902;28;20089;-84
2022/09/22 08:11:23;;;;;;;26.42;17.65;;;;;;;14.90;100.00;99292.38;5076837;28;20040;-83
2022/09/22 08:13:54;;;;;;;24.80;17.73;;;;;;;14.71;100.00;99280.94;5079019;28;20401;-83
2022/09/22 08:16:24;;;;;;;27.05;16.63;;;;;;;14.91;100.00;99269.41;5083468;28;20410;-83
2022/09/22 08:18:58;;;;;;;21.95;15.25;;;;;;;15.12;100.00;99278.75;5079919;28;20439;-83
2022/09/22 08:21:26;;;;;;;20.08;15.02;;;;;;;15.02;100.00;99275.81;5086076;28;20047;-83
2022/09/22 08:23:52;;;;;;;19.15;14.10;;;;;;;15.23;100.00;99270.09;5081814;28;20111;-83
2022/09/22 08:26:19;;;;;;;19.02;13.52;;;;;;;15.22;100.00;99276.41;5080449;28;20493;-84
2022/09/22 08:28:49;;;;;;;19.42;13.48;;;;;;;15.27;100.00;99263.34;5077679;28;20306;-84
2022/09/22 08:31:18;;;;;;;18.13;13.35;;;;;;;15.25;100.00;99272.53;5077770;28;20032;-82
2022/09/22 08:33:44;;;;;;;19.33;12.07;;;;;;;15.43;100.00;99277.03;5082520;28;20024;-83
2022/09/22 08:36:10;;;;;;;16.77;12.95;;;;;;;15.77;100.00;99282.75;5077816;28;20038;-82
2022/09/22 08:38:37;;;;;;;19.13;12.23;;;;;;;15.91;100.00;99278.13;5074367;28;20390;-84
2022/09/22 08:41:41;;;;;;;16.55;11.98;;;;;;;16.03;100.00;99277.38;5078494;28;20028;-83
2022/09/22 08:44:09;;;;;;;17.17;11.70;;;;;;;16.02;100.00;99276.53;5073552;28;20024;-83
2022/09/22 08:46:40;;;;;;;18.63;11.15;;;;;;;16.33;100.00;99253.50;5078767;28;20389;-83
2022/09/22 08:52:17;;;;;;;18.17;10.90;;;;;;;16.53;100.00;99271.72;5078612;28;20027;-84
2022/09/22 08:54:44;;;;;;;17.50;10.98;;;;;;;16.52;100.00;99275.41;5082168;28;20032;-83
2022/09/22 08:57:13;;;;;;;13.23;10.45;;;;;;;16.78;100.00;99275.22;5079310;28;20451;-82
2022/09/22 08:59:46;;;;;;;16.83;11.20;;;;;;;16.45;100.00;99258.00;5073942;28;20466;-83
2022/09/22 09:02:34;;;;;;;14.43;10.48;;;;;;;16.35;100.00;99262.03;5081206;28;20063;-83
2022/09/22 09:05:41;;;;;;;14.15;9.82;;;;;;;16.77;100.00;99265.66;5086870;28;20028;-83
2022/09/22 09:08:31;;;;;;;15.40;10.65;;;;;;;16.37;100.00;99264.44;5078042;28;20060;-83
2022/09/22 09:11:11;;;;;;;12.13;10.07;;;;;;;16.44;100.00;99248.44;5076065;28;20056;-84
2022/09/22 09:13:44;;;;;;;14.80;10.48;;;;;;;16.50;100.00;99252.81;5080732;28;20085;-82
2022/09/22 09:16:16;;;;;;;17.13;11.35;;;;;;;16.16;100.00;99257.84;5078646;28;20029;-83
2022/09/22 09:18:49;;;;;;;13.57;9.98;;;;;;;16.35;100.00;99255.91;5080056;28;20036;-83
2022/09/22 09:21:18;;;;;;;14.45;10.88;;;;;;;16.24;100.00;99250.38;5079122;28;20036;-83
2022/09/22 09:23:46;;;;;;;16.80;10.15;;;;;;;16.25;100.00;99245.88;5080619;28;20501;-82
2022/09/22 09:26:15;;;;;;;16.10;10.70;;;;;;;16.69;100.00;99257.00;5062753;28;20042;-83
2022/09/22 09:28:49;;;;;;;11.85;9.77;;;;;;;16.97;100.00;99260.00;5081638;28;20085;-82
2022/09/22 09:31:38;;;;;;;13.90;10.13;;;;;;;17.02;100.00;99254.84;5078690;28;20091;-83
2022/09/22 09:34:07;;;;;;;14.88;9.57;;;;;;;17.06;100.00;99256.00;5074511;28;20052;-82
2022/09/22 09:36:40;;;;;;;14.75;9.85;;;;;;;17.13;100.00;99255.88;5081041;28;20041;-82
2022/09/22 09:39:30;;;;;;;11.82;9.65;;;;;;;17.53;100.00;99263.06;5081191;28;20040;-84
2022/09/22 09:42:00;;;;;;;13.48;9.82;;;;;;;17.67;100.00;99250.34;5077656;28;20044;-83
2022/09/22 09:44:30;;;;;;;13.65;10.85;;;;;;;17.22;100.00;99264.28;5074564;28;20020;-83
2022/09/22 09:47:10;;;;;;;10.68;8.52;;;;;;;17.82;100.00;99257.00;5080718;28;20379;-83
2022/09/22 09:49:36;;;;;;;11.85;9.02;;;;;;;18.05;100.00;99250.00;5075636;28;20109;-83
2022/09/22 09:52:07;;;;;;;10.55;8.75;;;;;;;18.27;100.00;99260.72;5078953;28;20497;-83
2022/09/22 09:54:34;;;;;;;12.07;9.30;;;;;;;18.47;100.00;99257.59;5081872;28;20028;-83
2022/09/22 09:57:03;;;;;;;17.83;9.73;;;;;;;18.47;100.00;99262.09;5078609;28;20039;-83
2022/09/22 10:02:38;;;;;;;13.30;10.30;;;;;;;18.40;100.00;99262.28;5077044;28;20028;-83
2022/09/22 10:05:21;;;;;;;11.57;9.65;;;;;;;18.21;100.00;99264.34;5082623;28;20031;-84
2022/09/22 10:08:15;;;;;;;12.80;9.55;;;;;;;18.26;100.00;99272.38;5082071;28;20113;-83
2022/09/22 10:10:41;;;;;;;14.70;9.98;;;;;;;18.54;100.00;99265.41;5086688;28;20044;-84
2022/09/22 10:13:07;;;;;;;12.63;9.45;;;;;;;18.73;100.00;99265.97;5079032;28;20032;-84
2022/09/22 10:15:37;;;;;;;9.68;8.50;;;;;;;18.92;100.00;99249.75;5080487;28;20031;-84
2022/09/22 10:18:31;;;;;;;12.98;9.18;;;;;;;19.01;100.00;99247.50;5081452;28;20020;-84
2022/09/22 10:21:19;;;;;;;10.85;9.13;;;;;;;19.00;100.00;99259.19;5080399;28;20207;-84
2022/09/22 10:23:53;;;;;;;11.30;8.68;;;;;;;19.15;100.00;99235.47;5082468;28;20061;-83
2022/09/22 10:26:26;;;;;;;11.68;9.23;;;;;;;19.34;100.00;99254.59;5082517;28;20564;-83
2022/09/22 10:29:18;;;;;;;11.10;8.00;;;;;;;19.72;100.00;99246.78;5087035;28;20043;-85
2022/09/22 10:32:04;;;;;;;13.85;7.82;;;;;;;19.82;100.00;99244.22;5081874;28;20047;-83
2022/09/22 10:34:39;;;;;;;11.43;8.52;;;;;;;19.84;100.00;99236.78;5082802;28;20039;-83
2022/09/22 10:37:09;;;;;;;12.00;8.68;;;;;;;19.67;100.00;99244.88;5081955;28;20036;-84
2022/09/22 10:39:35;;;;;;;13.02;9.30;;;;;;;19.40;100.00;99245.63;5078274;28;20093;-84
2022/09/22 10:42:06;;;;;;;13.10;9.27;;;;;;;19.40;100.00;99236.84;5081372;28;20036;-83
2022/09/22 10:44:32;;;;;;;11.13;9.45;;;;;;;19.39;100.00;99235.22;5081232;28;20120;-84
2022/09/22 10:47:30;;;;;;;11.85;9.45;;;;;;;19.10;100.00;99238.84;5081064;28;20082;-84
2022/09/22 10:50:33;;;;;;;16.00;8.65;;;;;;;19.18;100.00;99245.63;5039317;28;20455;-84
2022/09/22 10:53:02;;;;;;;10.27;8.23;;;;;;;19.65;100.00;99238.16;5082484;28;20107;-84
2022/09/22 10:55:45;;;;;;;9.20;8.15;;;;;;;19.22;100.00;99230.75;5082101;28;20109;-84
2022/09/22 10:58:41;;;;;;;12.88;9.13;;;;;;;19.37;100.00;99240.81;5069001;28;20028;-82
2022/09/22 11:01:30;;;;;;;13.55;10.13;;;;;;;19.61;100.00;99232.56;5080808;28;20073;-83
2022/09/22 11:04:22;;;;;;;10.50;8.25;;;;;;;19.76;100.00;99237.22;5078588;28;20024;-83
2022/09/22 11:13:25;;;;;;;13.85;9.55;;;;;;;18.62;100.00;99201.19;5077535;28;20413;-83
2022/09/22 11:16:27;;;;;;;12.48;10.15;;;;;;;18.63;100.00;99218.75;5081586;28;20034;-82
2022/09/22 11:19:17;;;;;;;11.57;9.35;;;;;;;19.03;100.00;99221.47;5070780;28;20036;-83
2022/09/22 11:21:54;;;;;;;12.55;9.63;;;;;;;19.43;100.00;99216.91;5077835;28;20081;-84
2022/09/22 11:24:44;;;;;;;13.40;9.02;;;;;;;19.97;100.00;99213.50;5077835;28;20032;-84
2022/09/22 11:27:35;;;;;;;10.23;7.97;;;;;;;20.19;100.00;99225.94;5080709;28;20103;-84
2022/09/22 11:30:19;;;;;;;15.75;9.65;;;;;;;19.87;100.00;99221.38;5080384;28;20028;-84
2022/09/22 11:33:07;;;;;;;11.98;9.30;;;;;;;20.28;100.00;99219.09;5080254;28;20028;-83
2022/09/22 11:36:01;;;;;;;11.77;9.23;;;;;;;20.76;100.00;99223.69;5031223;28;20037;-83
2022/09/22 11:39:00;;;;;;;12.05;8.98;;;;;;;20.31;100.00;99210.59;5081687;28;20032;-83
2022/09/22 11:41:49;;;;;;;9.65;7.50;;;;;;;20.33;100.00;99202.31;5075065;28;20036;-83
2022/09/22 11:44:33;;;;;;;11.40;8.48;;;;;;;20.10;100.00;99215.75;5062884;28;20048;-83
2022/09/22 11:47:04;;;;;;;8.70;7.80;;;;;;;20.44;100.00;99224.53;5083565;28;20401;-84
2022/09/22 11:49:51;;;;;;;15.15;7.93;;;;;;;20.84;100.00;99225.91;5082030;28;20074;-83